Time;durP1;ratioP1;P1;durP2;ratioP2;P2;SDS_P1;SDS_P2;PMS_P1;PMS_P2;Temp;Humidity;BMP_temperature;BMP_pressure;BME280_temperature;BME280_humidity;BME280_pressure;Samples;Min_cycle;Max_cycle;Signal;HPM_P1;HPM_P2
2023/12/13 00:01:08;;;;;;;18.83;3.83;;;11.70;99.90;;;;;;4266355;27;20049;-70
2023/12/13 00:03:10;;;;;;;19.48;4.60;;;11.70;99.90;;;;;;4266199;27;20047;-70
2023/12/13 00:05:13;;;;;;;23.60;4.60;;;11.70;99.90;;;;;;4266496;27;20134;-71
2023/12/13 00:07:16;;;;;;;21.25;4.25;;;11.70;99.90;;;;;;4247888;27;20051;-71
2023/12/13 00:09:18;;;;;;;17.60;4.90;;;11.60;99.90;;;;;;4266609;27;20484;-70
2023/12/13 00:11:20;;;;;;;20.38;4.13;;;11.70;99.90;;;;;;4266438;27;20046;-70
2023/12/13 00:13:22;;;;;;;18.55;3.88;;;11.70;99.90;;;;;;4265940;27;20126;-70
2023/12/13 00:15:24;;;;;;;18.15;4.32;;;11.70;99.90;;;;;;4266044;27;20050;-70
2023/12/13 00:17:26;;;;;;;17.13;3.58;;;11.80;99.90;;;;;;4266084;27;20060;-70
2023/12/13 00:19:28;;;;;;;25.10;4.68;;;11.80;99.90;;;;;;4266202;27;20046;-70
2023/12/13 00:21:31;;;;;;;22.92;5.18;;;11.80;99.90;;;;;;4247922;27;20059;-69
2023/12/13 00:23:33;;;;;;;12.27;3.45;;;11.70;99.90;;;;;;4266238;27;20464;-69
2023/12/13 00:25:35;;;;;;;20.38;4.90;;;11.80;99.90;;;;;;4266114;27;20055;-70
2023/12/13 00:27:37;;;;;;;14.95;3.28;;;11.70;99.90;;;;;;4266069;27;20047;-69
2023/12/13 00:29:40;;;;;;;24.10;4.72;;;11.70;99.90;;;;;;4266153;27;20061;-70
2023/12/13 00:31:42;;;;;;;23.00;4.15;;;11.60;99.90;;;;;;4265846;27;20046;-70
2023/12/13 00:33:44;;;;;;;18.23;4.10;;;11.60;99.90;;;;;;4265955;27;20038;-71
2023/12/13 00:35:46;;;;;;;12.30;3.22;;;11.60;99.90;;;;;;4265706;27;20077;-69
2023/12/13 00:37:50;;;;;;;21.55;3.90;;;11.60;99.90;;;;;;4265801;27;20378;-69
2023/12/13 00:39:52;;;;;;;13.07;2.85;;;11.60;99.90;;;;;;4265911;27;20039;-69
2023/12/13 00:41:54;;;;;;;17.75;4.05;;;11.60;99.90;;;;;;4265611;27;20122;-69
2023/12/13 00:43:56;;;;;;;16.17;3.63;;;11.60;99.90;;;;;;4265918;27;20047;-69
2023/12/13 00:45:58;;;;;;;16.80;3.90;;;11.60;99.90;;;;;;4265883;27;20519;-69
2023/12/13 00:48:00;;;;;;;17.27;3.75;;;11.70;99.90;;;;;;4266001;27;20047;-68
2023/12/13 00:50:04;;;;;;;15.73;3.58;;;11.70;99.90;;;;;;4265940;27;20141;-68
2023/12/13 00:52:06;;;;;;;14.82;3.55;;;11.70;99.90;;;;;;4266380;27;20047;-70
2023/12/13 00:54:10;;;;;;;16.95;3.47;;;11.70;99.90;;;;;;4265662;27;20461;-68
2023/12/13 00:56:13;;;;;;;15.60;3.55;;;11.60;99.90;;;;;;4264751;27;20038;-69
2023/12/13 00:58:15;;;;;;;15.80;3.38;;;11.60;99.90;;;;;;4265120;27;20394;-69
2023/12/13 01:00:17;;;;;;;16.63;3.40;;;11.60;99.90;;;;;;4265782;27;20133;-69
2023/12/13 01:02:19;;;;;;;15.77;4.15;;;11.60;99.90;;;;;;4265865;27;20042;-69
2023/12/13 01:04:21;;;;;;;16.20;3.55;;;11.60;99.90;;;;;;4265360;27;20485;-70
2023/12/13 01:06:23;;;;;;;12.55;3.30;;;11.50;99.90;;;;;;4265495;27;20042;-70
2023/12/13 01:08:26;;;;;;;21.73;4.03;;;11.60;99.90;;;;;;4265483;27;20045;-70
2023/12/13 01:10:29;;;;;;;17.80;4.15;;;11.50;99.90;;;;;;4265035;27;20471;-71
2023/12/13 01:12:31;;;;;;;19.88;4.07;;;11.50;99.90;;;;;;4265138;27;20042;-70
2023/12/13 01:14:33;;;;;;;18.58;4.00;;;11.60;99.90;;;;;;4265125;27;20050;-70
2023/12/13 01:16:35;;;;;;;20.50;4.25;;;11.50;99.90;;;;;;4264952;27;20509;-70
2023/12/13 01:18:38;;;;;;;16.23;3.55;;;11.50;99.90;;;;;;4265348;27;20520;-69
2023/12/13 01:20:40;;;;;;;24.17;4.03;;;11.50;99.90;;;;;;4265069;27;20043;-69
2023/12/13 01:22:42;;;;;;;13.75;3.45;;;11.40;99.90;;;;;;4264940;27;20473;-70
2023/12/13 01:24:45;;;;;;;19.55;3.40;;;11.40;99.90;;;;;;4265168;27;20042;-70
2023/12/13 01:26:48;;;;;;;13.85;2.78;;;11.40;99.90;;;;;;4264687;27;20255;-70
2023/12/13 01:28:50;;;;;;;14.30;3.88;;;11.40;99.90;;;;;;4265163;27;20050;-70
2023/12/13 01:30:52;;;;;;;16.05;4.20;;;11.40;99.90;;;;;;4264855;27;20449;-71
2023/12/13 01:32:55;;;;;;;23.45;5.00;;;11.30;99.90;;;;;;4265171;27;20188;-70
2023/12/13 01:34:57;;;;;;;18.42;3.75;;;11.40;99.90;;;;;;4264907;27;20050;-69
2023/12/13 01:37:01;;;;;;;18.73;3.97;;;11.40;99.90;;;;;;4264520;27;20164;-70
2023/12/13 01:39:03;;;;;;;20.00;3.97;;;11.30;99.90;;;;;;4264837;27;20528;-70
2023/12/13 01:41:06;;;;;;;17.13;4.00;;;11.30;99.90;;;;;;4264609;27;20444;-70
2023/12/13 01:43:22;;;;;;;18.70;4.00;;;11.30;99.90;;;;;;4264632;27;20212;-69
2023/12/13 01:45:24;;;;;;;22.92;4.95;;;11.20;99.90;;;;;;4264891;27;20454;-68
2023/12/13 01:47:26;;;;;;;16.17;4.03;;;11.30;99.90;;;;;;4264755;27;20100;-68
2023/12/13 01:49:29;;;;;;;16.05;2.90;;;11.30;99.90;;;;;;4264300;27;20053;-69
2023/12/13 01:51:31;;;;;;;18.17;3.63;;;11.30;99.90;;;;;;4264716;27;20050;-70
2023/12/13 01:53:34;;;;;;;18.83;4.32;;;11.30;99.90;;;;;;4264843;27;20042;-69
2023/12/13 01:55:36;;;;;;;14.38;3.38;;;11.30;99.90;;;;;;4264419;27;20046;-69
2023/12/13 01:57:39;;;;;;;16.75;3.67;;;11.30;99.90;;;;;;4264670;27;20050;-70
2023/12/13 01:59:43;;;;;;;16.67;4.18;;;11.30;99.90;;;;;;4264729;27;20066;-69
2023/12/13 02:01:45;;;;;;;20.90;4.10;;;11.20;99.90;;;;;;4264636;27;20047;-68
2023/12/13 02:03:47;;;;;;;21.33;3.75;;;11.30;99.90;;;;;;4264419;27;20046;-68
2023/12/13 02:05:53;;;;;;;13.98;3.70;;;11.30;99.90;;;;;;4264584;27;20509;-68
2023/12/13 02:07:55;;;;;;;15.43;3.05;;;11.30;99.90;;;;;;4264393;27;20046;-68
2023/12/13 02:09:58;;;;;;;23.88;4.40;;;11.30;99.90;;;;;;4264041;27;20042;-67
2023/12/13 02:12:00;;;;;;;18.33;3.83;;;11.40;99.90;;;;;;4264301;27;20193;-68
2023/12/13 02:14:02;;;;;;;20.48;4.43;;;11.40;99.90;;;;;;4264636;27;20050;-67
2023/12/13 02:16:07;;;;;;;17.05;3.85;;;11.30;99.90;;;;;;4264227;27;20386;-67
2023/12/13 02:18:09;;;;;;;21.08;4.28;;;11.30;99.90;;;;;;4264461;27;20077;-67
2023/12/13 02:20:12;;;;;;;17.75;3.65;;;11.40;99.90;;;;;;4264523;27;20070;-67
2023/12/13 02:22:15;;;;;;;18.95;4.28;;;11.40;99.90;;;;;;4264471;27;20043;-67
2023/12/13 02:24:22;;;;;;;18.00;3.90;;;11.40;99.90;;;;;;4263990;27;20050;-67
2023/12/13 02:26:24;;;;;;;23.60;4.50;;;11.30;99.90;;;;;;4264519;27;20047;-68
2023/12/13 02:28:27;;;;;;;23.08;4.72;;;11.30;99.90;;;;;;4264072;27;20043;-68
2023/12/13 02:30:30;;;;;;;14.95;4.13;;;11.30;99.90;;;;;;4264497;27;20051;-68
2023/12/13 02:32:32;;;;;;;16.20;3.83;;;11.30;99.90;;;;;;4264310;27;20091;-68
2023/12/13 02:34:34;;;;;;;20.50;3.22;;;11.20;99.90;;;;;;4264337;27;20090;-68
2023/12/13 02:36:36;;;;;;;19.50;3.97;;;11.30;99.90;;;;;;4263993;27;20050;-67
2023/12/13 02:38:41;;;;;;;16.88;3.80;;;11.20;99.90;;;;;;4263947;27;20046;-68
2023/12/13 02:40:43;;;;;;;18.35;3.85;;;11.20;99.90;;;;;;4245980;28;20120;-67
2023/12/13 02:42:45;;;;;;;17.40;3.67;;;11.20;99.90;;;;;;4264251;27;20050;-67
2023/12/13 02:44:47;;;;;;;18.95;3.50;;;11.10;99.90;;;;;;4263913;27;20046;-67
2023/12/13 02:46:49;;;;;;;14.80;4.18;;;11.10;99.90;;;;;;4264159;27;20046;-67
2023/12/13 02:48:51;;;;;;;24.38;3.92;;;11.10;99.90;;;;;;4264108;27;20114;-67
2023/12/13 02:50:53;;;;;;;21.30;4.50;;;11.10;99.90;;;;;;4264236;27;20413;-68
2023/12/13 02:52:55;;;;;;;18.20;4.25;;;11.10;99.90;;;;;;4263805;27;20047;-67
2023/12/13 02:54:59;;;;;;;18.08;3.20;;;11.10;99.90;;;;;;4264066;27;20045;-67
2023/12/13 02:57:01;;;;;;;15.02;4.15;;;11.00;99.90;;;;;;4264064;27;20069;-68
2023/12/13 02:59:03;;;;;;;20.00;3.88;;;11.00;99.90;;;;;;4264149;27;20428;-68
2023/12/13 03:01:06;;;;;;;17.95;3.67;;;10.90;99.90;;;;;;4264119;27;20181;-68
2023/12/13 03:03:08;;;;;;;18.00;3.75;;;10.90;99.90;;;;;;4264156;27;20043;-67
2023/12/13 03:05:10;;;;;;;14.27;3.53;;;10.90;99.90;;;;;;4263974;27;20137;-66
2023/12/13 03:07:13;;;;;;;14.05;3.42;;;10.90;99.90;;;;;;4245397;28;20047;-67
2023/12/13 03:09:15;;;;;;;21.85;3.80;;;10.90;99.90;;;;;;4246035;28;20107;-68
2023/12/13 03:11:20;;;;;;;14.27;3.53;;;10.90;99.90;;;;;;4264449;27;20053;-65
2023/12/13 03:13:22;;;;;;;19.08;4.35;;;10.80;99.90;;;;;;4264896;27;20039;-69
2023/12/13 03:15:24;;;;;;;20.25;3.97;;;10.80;99.90;;;;;;4264406;27;20039;-66
2023/12/13 03:17:26;;;;;;;16.70;3.95;;;10.80;99.90;;;;;;4264685;27;20239;-65
2023/12/13 03:19:28;;;;;;;16.27;3.53;;;10.80;99.90;;;;;;4263525;27;20103;-65
2023/12/13 03:21:30;;;;;;;16.15;3.08;;;10.80;99.90;;;;;;4267413;27;20447;-65
2023/12/13 03:23:32;;;;;;;16.98;4.32;;;10.80;99.90;;;;;;4267268;27;20074;-65
2023/12/13 03:25:34;;;;;;;22.42;3.97;;;10.80;99.90;;;;;;4267361;27;20074;-66
2023/12/13 03:27:42;;;;;;;17.17;3.53;;;10.90;99.90;;;;;;4267361;27;20119;-65
2023/12/13 03:29:44;;;;;;;22.08;3.97;;;10.90;99.90;;;;;;4266971;27;20129;-67
2023/12/13 03:31:46;;;;;;;19.02;3.63;;;10.90;99.90;;;;;;4267156;27;20103;-65
2023/12/13 03:33:48;;;;;;;18.00;3.67;;;10.80;99.90;;;;;;4267148;27;20095;-66
2023/12/13 03:35:50;;;;;;;16.52;3.58;;;10.80;99.90;;;;;;4266623;27;20085;-66
2023/12/13 03:37:52;;;;;;;18.65;3.80;;;10.80;99.90;;;;;;4266982;27;20099;-65
2023/12/13 03:39:54;;;;;;;22.33;3.90;;;10.80;99.90;;;;;;4249016;27;20049;-66
2023/12/13 03:41:57;;;;;;;17.33;3.90;;;10.80;99.90;;;;;;4267060;27;20403;-65
2023/12/13 03:44:00;;;;;;;16.60;3.10;;;10.70;99.90;;;;;;4267140;27;20046;-67
2023/12/13 03:46:02;;;;;;;15.10;3.92;;;10.70;99.90;;;;;;4267019;27;20040;-65
2023/12/13 03:48:04;;;;;;;12.73;2.97;;;10.70;99.90;;;;;;4266806;27;20070;-66
2023/12/13 03:50:08;;;;;;;14.73;3.60;;;10.70;99.90;;;;;;4266397;27;20043;-65
2023/12/13 03:52:11;;;;;;;17.25;3.92;;;10.70;99.90;;;;;;4266791;27;20043;-65
2023/12/13 03:54:13;;;;;;;21.40;3.90;;;10.80;99.90;;;;;;4266694;27;20042;-65
2023/12/13 03:56:15;;;;;;;15.48;3.58;;;10.80;99.90;;;;;;4266605;27;20043;-65
2023/12/13 03:58:17;;;;;;;15.90;3.70;;;10.80;99.90;;;;;;4266610;27;20039;-65
2023/12/13 04:00:21;;;;;;;25.92;4.55;;;10.80;99.90;;;;;;4266426;27;20050;-68
2023/12/13 04:02:23;;;;;;;10.73;2.53;;;10.70;99.90;;;;;;4248282;27;20062;-68
2023/12/13 04:04:25;;;;;;;18.83;4.30;;;10.70;99.90;;;;;;4266142;27;20074;-67
2023/12/13 04:06:27;;;;;;;22.05;4.22;;;10.70;99.90;;;;;;4248244;27;20043;-68
2023/12/13 04:08:29;;;;;;;22.55;3.60;;;10.70;99.90;;;;;;4266523;27;20053;-68
2023/12/13 04:10:31;;;;;;;20.20;3.97;;;10.60;99.90;;;;;;4266452;27;20054;-67
2023/12/13 04:12:33;;;;;;;16.92;3.90;;;10.70;99.90;;;;;;4266357;27;20043;-68
2023/12/13 04:14:35;;;;;;;21.75;3.63;;;10.70;99.90;;;;;;4248064;27;20107;-67
2023/12/13 04:16:39;;;;;;;21.25;3.88;;;10.80;99.90;;;;;;4265854;27;20070;-68
2023/12/13 04:18:45;;;;;;;17.08;3.47;;;10.80;99.90;;;;;;4266033;27;20043;-68
2023/12/13 04:20:47;;;;;;;17.77;3.20;;;10.80;99.90;;;;;;4265931;27;20401;-68
2023/12/13 04:22:49;;;;;;;17.67;4.13;;;10.90;99.90;;;;;;4266002;27;20050;-68
2023/12/13 04:24:51;;;;;;;19.50;3.90;;;10.90;99.90;;;;;;4266116;27;20042;-68
2023/12/13 04:26:53;;;;;;;19.40;3.33;;;10.80;99.90;;;;;;4266185;27;20477;-68
2023/12/13 04:28:55;;;;;;;18.00;3.88;;;10.90;99.90;;;;;;4265981;27;20046;-68
2023/12/13 04:30:57;;;;;;;17.23;3.35;;;10.90;99.90;;;;;;4265819;27;20043;-68
2023/12/13 04:33:01;;;;;;;19.90;4.38;;;11.00;99.90;;;;;;4265735;27;20053;-67
2023/12/13 04:35:03;;;;;;;18.42;4.05;;;10.90;99.90;;;;;;4265711;27;20043;-67
2023/12/13 04:37:06;;;;;;;17.92;3.33;;;10.90;99.90;;;;;;4265682;27;20103;-68
2023/12/13 04:39:08;;;;;;;17.35;4.43;;;11.00;99.90;;;;;;4266156;27;20481;-66
2023/12/13 04:41:10;;;;;;;18.27;3.22;;;11.10;99.90;;;;;;4266121;27;20046;-68
2023/12/13 04:43:12;;;;;;;17.13;3.33;;;11.10;99.90;;;;;;4265844;27;20136;-68
2023/12/13 04:45:15;;;;;;;21.58;4.50;;;11.10;99.90;;;;;;4265672;27;20054;-68
2023/12/13 04:47:17;;;;;;;24.75;4.10;;;11.10;99.90;;;;;;4265597;27;20039;-68
2023/12/13 04:49:21;;;;;;;15.48;3.53;;;10.90;99.90;;;;;;4265277;27;20051;-69
2023/12/13 04:51:23;;;;;;;21.35;3.85;;;10.80;99.90;;;;;;4265835;27;20047;-68
2023/12/13 04:53:25;;;;;;;22.00;4.22;;;10.90;99.90;;;;;;4265516;27;20137;-68
2023/12/13 04:55:27;;;;;;;15.57;3.67;;;10.90;99.90;;;;;;4265819;27;20043;-68
2023/12/13 04:57:29;;;;;;;16.23;3.95;;;10.90;99.90;;;;;;4265387;27;20051;-67
2023/12/13 04:59:31;;;;;;;22.23;3.75;;;10.90;99.90;;;;;;4265373;27;20095;-67
2023/12/13 05:01:33;;;;;;;15.98;3.55;;;10.80;99.90;;;;;;4247092;27;20487;-67
2023/12/13 05:03:35;;;;;;;22.27;3.50;;;10.80;99.90;;;;;;4264866;27;20042;-67
2023/12/13 05:05:39;;;;;;;22.27;3.78;;;10.70;99.90;;;;;;4265381;27;20046;-68
2023/12/13 05:07:41;;;;;;;18.00;4.45;;;10.70;99.90;;;;;;4265325;27;20047;-68
2023/12/13 05:09:43;;;;;;;13.27;3.40;;;10.70;99.90;;;;;;4265501;27;20042;-69
2023/12/13 05:11:46;;;;;;;21.52;4.10;;;10.60;99.90;;;;;;4265362;27;20125;-68
2023/12/13 05:13:47;;;;;;;16.33;3.33;;;10.70;99.90;;;;;;4247019;27;20053;-68
2023/12/13 05:15:50;;;;;;;20.85;3.78;;;10.70;99.90;;;;;;4265370;27;20121;-68
2023/12/13 05:17:52;;;;;;;20.63;3.70;;;10.80;99.90;;;;;;4264927;27;20054;-66
2023/12/13 05:19:54;;;;;;;20.50;3.72;;;10.80;99.90;;;;;;4265207;27;20046;-68
2023/12/13 05:21:59;;;;;;;17.90;3.88;;;10.80;99.90;;;;;;4265002;27;20478;-68
2023/12/13 05:24:01;;;;;;;14.27;3.22;;;10.70;99.90;;;;;;4264924;27;20051;-68
2023/12/13 05:26:04;;;;;;;18.10;3.47;;;10.80;99.90;;;;;;4265146;27;20404;-68
2023/12/13 05:28:06;;;;;;;18.55;4.00;;;10.80;99.90;;;;;;4265171;27;20043;-68
2023/12/13 05:30:09;;;;;;;18.98;4.07;;;10.90;99.90;;;;;;4265168;27;20046;-67
2023/12/13 05:32:11;;;;;;;16.67;3.90;;;10.90;99.90;;;;;;4264758;27;20448;-68
2023/12/13 05:34:13;;;;;;;17.02;3.63;;;10.90;99.90;;;;;;4264797;27;20038;-68
2023/12/13 05:36:15;;;;;;;23.95;3.65;;;10.90;99.90;;;;;;4264710;27;20164;-68
2023/12/13 05:38:18;;;;;;;18.15;3.63;;;10.90;99.90;;;;;;4264659;27;20062;-68
2023/12/13 05:40:20;;;;;;;17.38;3.30;;;10.90;99.90;;;;;;4264988;27;20046;-67
2023/12/13 05:42:23;;;;;;;16.80;3.75;;;10.80;99.90;;;;;;4264492;27;20047;-69
2023/12/13 05:44:25;;;;;;;15.07;3.33;;;10.90;99.90;;;;;;4264749;27;20409;-68
2023/12/13 05:46:33;;;;;;;16.33;3.40;;;10.90;99.90;;;;;;4264309;27;20049;-69
2023/12/13 05:48:35;;;;;;;21.30;3.38;;;10.90;99.90;;;;;;4264687;27;20053;-68
2023/12/13 05:50:37;;;;;;;16.27;3.78;;;10.90;99.90;;;;;;4264480;27;20408;-68
2023/12/13 05:52:39;;;;;;;21.48;4.05;;;10.80;99.90;;;;;;4264667;27;20055;-67
2023/12/13 05:54:43;;;;;;;20.33;3.58;;;10.70;99.90;;;;;;4264679;27;20133;-67
2023/12/13 05:56:45;;;;;;;16.77;3.20;;;10.70;99.90;;;;;;4264589;27;20175;-69
2023/12/13 05:58:47;;;;;;;17.08;3.50;;;10.80;99.90;;;;;;4264738;27;20602;-68
2023/12/13 06:00:50;;;;;;;15.73;3.30;;;10.80;99.90;;;;;;4264643;27;20104;-68
2023/12/13 06:02:52;;;;;;;19.38;3.53;;;10.80;99.90;;;;;;4264935;27;20047;-68
2023/12/13 06:04:57;;;;;;;18.50;4.22;;;10.70;99.90;;;;;;4264826;27;20043;-68
2023/12/13 06:07:03;;;;;;;16.48;3.40;;;10.70;99.90;;;;;;4264694;27;20047;-68
2023/12/13 06:09:05;;;;;;;12.27;2.67;;;10.70;99.90;;;;;;4264766;27;20050;-65
2023/12/13 06:11:08;;;;;;;17.00;3.70;;;10.70;99.90;;;;;;4264660;27;20492;-68
2023/12/13 06:13:10;;;;;;;18.65;4.03;;;10.80;99.90;;;;;;4246222;27;20505;-67
2023/12/13 06:15:12;;;;;;;21.50;3.55;;;10.70;99.90;;;;;;4264104;27;20078;-67
2023/12/13 06:17:14;;;;;;;13.75;3.40;;;10.70;99.90;;;;;;4264514;27;20042;-66
2023/12/13 06:19:16;;;;;;;14.85;3.15;;;10.60;99.90;;;;;;4264422;27;20538;-67
2023/12/13 06:21:18;;;;;;;19.45;3.35;;;10.70;99.90;;;;;;4264542;27;20039;-68
2023/12/13 06:23:21;;;;;;;17.63;3.53;;;10.70;99.90;;;;;;4264506;27;20047;-68
2023/12/13 06:25:23;;;;;;;14.75;3.00;;;10.70;99.90;;;;;;4246195;28;20047;-69
2023/12/13 06:27:26;;;;;;;14.77;3.00;;;10.60;99.90;;;;;;4264325;27;20053;-68
2023/12/13 06:29:28;;;;;;;15.40;3.47;;;10.60;99.90;;;;;;4264122;27;20066;-68
2023/12/13 06:31:30;;;;;;;15.18;3.20;;;10.50;99.90;;;;;;4246112;28;20047;-68
2023/12/13 06:33:32;;;;;;;15.50;3.05;;;10.50;99.90;;;;;;4264309;27;20046;-69
2023/12/13 06:35:36;;;;;;;18.38;4.25;;;10.60;99.90;;;;;;4264153;27;20049;-68
2023/12/13 06:37:38;;;;;;;15.88;3.65;;;10.70;99.90;;;;;;4264334;27;20562;-68
2023/12/13 06:39:40;;;;;;;19.88;4.43;;;10.60;99.90;;;;;;4264497;27;20129;-68
2023/12/13 06:41:42;;;;;;;19.30;3.58;;;10.70;99.90;;;;;;4245806;28;20047;-69
2023/12/13 06:43:46;;;;;;;15.13;3.67;;;10.70;99.90;;;;;;4264232;27;20047;-68
2023/12/13 06:45:49;;;;;;;12.50;3.47;;;10.70;99.90;;;;;;4264271;27;20137;-68
2023/12/13 06:47:53;;;;;;;;;;;10.70;99.90;;;;;;4265023;27;20050;-68
2023/12/13 06:49:55;;;;;;;15.98;3.70;;;10.60;99.90;;;;;;4245970;27;19919;-68
2023/12/13 06:51:57;;;;;;;13.73;3.28;;;10.60;99.90;;;;;;4264173;27;20046;-68
2023/12/13 06:54:00;;;;;;;17.13;3.55;;;10.60;99.90;;;;;;4264237;27;20042;-69
2023/12/13 06:56:03;;;;;;;15.95;3.08;;;10.60;99.90;;;;;;4266498;27;20073;-68
2023/12/13 06:58:08;;;;;;;15.32;2.60;;;10.50;99.90;;;;;;4267447;27;20051;-68
2023/12/13 07:00:13;;;;;;;17.50;3.20;;;10.60;99.90;;;;;;4267259;27;20054;-68
2023/12/13 07:02:15;;;;;;;15.98;3.10;;;10.50;99.90;;;;;;4267719;27;20054;-67
2023/12/13 07:04:17;;;;;;;15.23;3.53;;;10.60;99.90;;;;;;4267496;27;20039;-68
2023/12/13 07:06:19;;;;;;;16.13;2.88;;;10.60;99.90;;;;;;4267241;27;20046;-68
2023/12/13 07:08:21;;;;;;;15.73;3.30;;;10.60;99.90;;;;;;4267669;27;20495;-69
2023/12/13 07:10:26;;;;;;;10.75;2.55;;;10.60;99.90;;;;;;4267669;27;20043;-68
2023/12/13 07:12:29;;;;;;;16.30;3.15;;;10.60;99.90;;;;;;4267381;27;20399;-69
2023/12/13 07:14:31;;;;;;;23.17;4.03;;;10.50;99.90;;;;;;4266909;27;20457;-69
2023/12/13 07:16:34;;;;;;;15.75;3.58;;;10.60;99.90;;;;;;4268192;27;20049;-69
2023/12/13 07:18:37;;;;;;;16.35;3.45;;;10.60;99.90;;;;;;4267498;27;20053;-68
2023/12/13 07:20:39;;;;;;;15.07;3.03;;;10.50;99.90;;;;;;4267553;27;20046;-69
2023/12/13 07:22:44;;;;;;;11.95;3.42;;;10.60;99.90;;;;;;4267123;27;20107;-69
2023/12/13 07:24:47;;;;;;;14.68;2.88;;;10.50;99.90;;;;;;4248769;27;20051;-69
2023/12/13 07:26:49;;;;;;;12.88;3.33;;;10.60;99.90;;;;;;4267240;27;20039;-68
2023/12/13 07:28:51;;;;;;;18.27;3.72;;;10.60;99.90;;;;;;4266643;27;20045;-69
2023/12/13 07:30:53;;;;;;;17.30;3.00;;;10.60;99.90;;;;;;4267047;27;20503;-68
2023/12/13 07:33:11;;;;;;;16.00;3.08;;;10.70;99.90;;;;;;4267179;27;20464;-68
2023/12/13 07:35:13;;;;;;;16.48;3.20;;;10.60;99.90;;;;;;4266907;27;20050;-69
2023/12/13 07:37:16;;;;;;;17.65;2.97;;;10.60;99.90;;;;;;4266647;27;20046;-69
2023/12/13 07:39:18;;;;;;;17.80;3.90;;;10.60;99.90;;;;;;4266668;27;20589;-68
2023/12/13 07:41:20;;;;;;;18.10;3.42;;;10.70;99.90;;;;;;4266691;27;20043;-68
2023/12/13 07:43:23;;;;;;;13.50;2.97;;;10.70;99.90;;;;;;4266295;27;20064;-69
2023/12/13 07:45:25;;;;;;;22.15;4.43;;;10.80;99.90;;;;;;4248243;27;20039;-68
2023/12/13 07:47:27;;;;;;;24.95;3.95;;;10.90;99.90;;;;;;4248119;27;20057;-68
2023/12/13 07:49:30;;;;;;;14.25;3.35;;;10.80;99.90;;;;;;4266745;27;20051;-66
2023/12/13 07:51:33;;;;;;;11.82;2.78;;;10.80;99.90;;;;;;4266697;27;20058;-68
2023/12/13 07:53:35;;;;;;;11.27;2.85;;;10.80;99.90;;;;;;4266431;27;20050;-68
2023/12/13 07:55:37;;;;;;;15.23;3.15;;;10.90;99.90;;;;;;4266568;27;20046;-68
2023/12/13 07:57:39;;;;;;;19.40;4.07;;;10.90;99.90;;;;;;4266007;27;20103;-68
2023/12/13 07:59:41;;;;;;;21.55;3.75;;;11.00;99.90;;;;;;4266450;27;20067;-67
2023/12/13 08:01:43;;;;;;;15.10;3.53;;;10.90;99.90;;;;;;4266265;27;20061;-68
2023/12/13 08:03:46;;;;;;;17.08;3.80;;;10.90;99.90;;;;;;4266585;27;20038;-69
2023/12/13 08:05:49;;;;;;;20.08;4.32;;;11.00;99.90;;;;;;4266096;27;20126;-68
2023/12/13 08:07:51;;;;;;;13.30;3.30;;;11.00;99.90;;;;;;4266565;27;20477;-69
2023/12/13 08:09:57;;;;;;;15.45;2.72;;;11.00;99.90;;;;;;4266268;27;20095;-69
2023/12/13 08:11:59;;;;;;;15.68;3.53;;;11.10;99.90;;;;;;4265758;27;20062;-68
2023/12/13 08:14:01;;;;;;;13.88;2.83;;;11.10;99.90;;;;;;4247945;27;20043;-68
2023/12/13 08:16:05;;;;;;;12.95;2.50;;;11.10;99.90;;;;;;4266318;27;20831;-69
2023/12/13 08:18:07;;;;;;;13.45;2.72;;;11.00;99.90;;;;;;4266077;27;20049;-69
2023/12/13 08:20:11;;;;;;;12.27;2.58;;;11.00;99.90;;;;;;4265900;27;20516;-69
2023/12/13 08:22:14;;;;;;;8.38;2.60;;;11.00;99.90;;;;;;4266122;27;20047;-68
2023/12/13 08:24:16;;;;;;;10.77;2.67;;;11.00;99.90;;;;;;4266041;27;20538;-69
2023/12/13 08:26:19;;;;;;;13.70;2.53;;;11.10;99.90;;;;;;4265989;27;20382;-68
2023/12/13 08:28:21;;;;;;;11.07;3.35;;;11.10;99.90;;;;;;4266112;27;20050;-68
2023/12/13 08:30:23;;;;;;;12.43;2.70;;;11.10;99.90;;;;;;4266126;27;20051;-67
2023/12/13 08:32:25;;;;;;;15.60;2.72;;;11.20;99.90;;;;;;4265836;27;20050;-68
2023/12/13 08:34:28;;;;;;;11.48;3.90;;;11.10;99.90;;;;;;4265721;27;20046;-68
2023/12/13 08:36:30;;;;;;;14.15;3.75;;;11.20;99.90;;;;;;4265673;27;20116;-68
2023/12/13 08:38:33;;;;;;;13.45;3.00;;;11.30;99.90;;;;;;4266143;27;20133;-70
2023/12/13 08:40:36;;;;;;;9.60;2.67;;;11.20;99.90;;;;;;4265751;27;20053;-69
2023/12/13 08:42:38;;;;;;;14.80;3.42;;;11.20;99.90;;;;;;4266059;27;20457;-69
2023/12/13 08:44:46;;;;;;;10.68;2.85;;;11.10;99.90;;;;;;4247512;27;20130;-68
2023/12/13 08:46:49;;;;;;;11.18;2.65;;;11.10;99.90;;;;;;4265983;27;20052;-68
2023/12/13 08:48:51;;;;;;;10.30;2.80;;;11.10;99.90;;;;;;4265761;27;20053;-68
2023/12/13 08:50:53;;;;;;;12.88;3.67;;;11.00;99.90;;;;;;4265943;27;20382;-69
2023/12/13 08:52:55;;;;;;;10.80;3.13;;;11.10;99.90;;;;;;4265935;27;20047;-67
2023/12/13 08:54:59;;;;;;;8.52;2.03;;;11.10;99.90;;;;;;4265732;27;20499;-68
2023/12/13 08:57:01;;;;;;;7.78;2.33;;;11.20;99.90;;;;;;4265777;27;20084;-70
2023/12/13 08:59:03;;;;;;;10.10;2.13;;;11.30;99.90;;;;;;4262039;27;20184;-70
2023/12/13 09:01:06;;;;;;;9.77;2.40;;;11.20;99.90;;;;;;4259207;27;20125;-68
2023/12/13 09:03:08;;;;;;;7.25;2.30;;;11.20;99.90;;;;;;4265514;27;20126;-69
2023/12/13 09:05:10;;;;;;;12.60;2.45;;;11.30;99.90;;;;;;4260402;27;20042;-70
2023/12/13 09:07:12;;;;;;;6.78;1.85;;;11.20;99.90;;;;;;4264074;27;20045;-69
2023/12/13 09:09:14;;;;;;;6.95;1.63;;;11.50;99.90;;;;;;4265228;27;20053;-69
2023/12/13 09:11:18;;;;;;;11.90;2.53;;;12.00;99.90;;;;;;4265530;27;20039;-68
2023/12/13 09:13:20;;;;;;;8.20;2.28;;;12.20;99.90;;;;;;4266820;27;20495;-68
2023/12/13 09:15:22;;;;;;;12.27;2.45;;;12.40;99.90;;;;;;4267650;27;20393;-73
2023/12/13 09:17:24;;;;;;;11.05;2.70;;;12.30;99.90;;;;;;4267165;27;20038;-68
2023/12/13 09:19:27;;;;;;;8.50;2.17;;;12.60;99.90;;;;;;4266167;27;20066;-72
2023/12/13 09:21:29;;;;;;;11.82;2.80;;;12.70;99.90;;;;;;4263321;27;20125;-72
2023/12/13 09:23:35;;;;;;;9.10;2.60;;;12.80;99.90;;;;;;4265079;27;20393;-68
2023/12/13 09:25:38;;;;;;;9.45;2.70;;;12.80;99.90;;;;;;4265103;27;20050;-68
2023/12/13 09:27:42;;;;;;;10.80;2.97;;;13.00;99.90;;;;;;4265236;27;20394;-66
2023/12/13 09:29:44;;;;;;;12.43;2.35;;;13.00;99.90;;;;;;4262110;27;20042;-67
2023/12/13 09:31:47;;;;;;;10.98;2.15;;;12.90;99.90;;;;;;4252189;27;20039;-67
2023/12/13 09:33:50;;;;;;;14.45;2.28;;;13.00;99.90;;;;;;4247659;27;20089;-67
2023/12/13 09:35:53;;;;;;;13.90;2.67;;;13.20;99.90;;;;;;4247664;27;20055;-66
2023/12/13 09:37:55;;;;;;;14.32;2.60;;;13.10;99.90;;;;;;4258462;27;20046;-67
2023/12/13 09:39:59;;;;;;;13.10;2.47;;;13.00;99.90;;;;;;4264144;27;20137;-66
2023/12/13 09:42:04;;;;;;;11.50;2.70;;;13.00;99.90;;;;;;4264954;27;20446;-66
2023/12/13 09:44:09;;;;;;;8.90;2.00;;;13.00;99.90;;;;;;4264754;27;20051;-67
2023/12/13 09:46:13;;;;;;;;;;;13.00;99.90;;;;;;4265192;27;20047;-67
2023/12/13 09:48:21;;;;;;;13.40;2.80;;;13.00;99.90;;;;;;4264604;27;19930;-67
2023/12/13 09:50:24;;;;;;;14.98;2.40;;;12.90;99.90;;;;;;4264844;27;20069;-69
2023/12/13 09:52:28;;;;;;;12.02;2.17;;;13.00;99.90;;;;;;4264488;27;20051;-69
2023/12/13 09:54:30;;;;;;;13.43;2.45;;;13.10;99.90;;;;;;4262549;27;20043;-71
2023/12/13 09:56:32;;;;;;;9.90;2.58;;;13.00;99.90;;;;;;4262243;27;20070;-70
2023/12/13 09:58:35;;;;;;;11.10;2.47;;;13.10;99.90;;;;;;4263822;27;20377;-69
2023/12/13 10:00:38;;;;;;;8.45;2.15;;;13.10;99.90;;;;;;4264495;27;20137;-69
2023/12/13 10:02:41;;;;;;;12.38;2.80;;;13.00;99.90;;;;;;4264806;27;20080;-70
2023/12/13 10:04:43;;;;;;;8.93;1.98;;;13.20;99.90;;;;;;4264395;27;20051;-69
2023/12/13 10:06:46;;;;;;;10.75;2.53;;;13.60;99.90;;;;;;4264370;27;20046;-67
2023/12/13 10:08:53;;;;;;;6.57;1.83;;;13.50;99.90;;;;;;4258690;27;20039;-66
2023/12/13 10:10:55;;;;;;;9.13;2.28;;;13.70;99.90;;;;;;4257812;27;20065;-67
2023/12/13 10:12:59;;;;;;;7.18;2.33;;;13.60;99.90;;;;;;4263187;27;20045;-67
2023/12/13 10:15:07;;;;;;;9.80;2.50;;;13.50;99.90;;;;;;4264079;27;20126;-69
2023/12/13 10:17:11;;;;;;;5.70;2.05;;;13.60;99.90;;;;;;4262623;27;20038;-66
2023/12/13 10:19:21;;;;;;;8.07;2.38;;;13.80;99.90;;;;;;4262547;27;20043;-70
2023/12/13 10:21:23;;;;;;;8.60;2.55;;;13.70;99.90;;;;;;4260556;27;20426;-71
2023/12/13 10:23:25;;;;;;;9.65;2.17;;;13.70;99.90;;;;;;4263574;27;20053;-70
2023/12/13 10:25:29;;;;;;;7.28;2.88;;;13.70;99.90;;;;;;4255763;27;20050;-69
2023/12/13 10:27:32;;;;;;;9.27;1.90;;;13.80;99.90;;;;;;4257561;27;20455;-71
2023/12/13 10:29:34;;;;;;;8.40;2.00;;;13.80;99.90;;;;;;4261350;27;20050;-69
2023/12/13 10:31:37;;;;;;;8.45;1.95;;;13.80;99.90;;;;;;4265624;27;20070;-69